Time;durP1;ratioP1;P1;durP2;ratioP2;P2;SDS_P1;SDS_P2;PMS_P1;PMS_P2;Temp;Humidity;BMP_temperature;BMP_pressure;BME280_temperature;BME280_humidity;BME280_pressure;Samples;Min_cycle;Max_cycle;Signal;HPM_P1;HPM_P2
2022/03/04 00:00:09;;;;;;;3.23;2.80;;;0.80;86.80;;;;;;5058994;28;20193;-54
2022/03/04 00:02:55;;;;;;;3.30;3.00;;;0.90;87.90;;;;;;5056694;28;20201;-57
2022/03/04 00:05:40;;;;;;;4.40;2.83;;;0.80;88.60;;;;;;5056779;28;20230;-57
2022/03/04 00:08:24;;;;;;;4.93;2.77;;;0.90;88.40;;;;;;5059252;28;20198;-51
2022/03/04 00:11:09;;;;;;;3.53;3.23;;;1.00;88.70;;;;;;5059195;28;20240;-55
2022/03/04 00:13:54;;;;;;;2.63;1.87;;;1.00;88.70;;;;;;5061597;28;20255;-52
2022/03/04 00:16:38;;;;;;;2.87;2.63;;;1.20;88.70;;;;;;5062441;28;20229;-50
2022/03/04 00:19:24;;;;;;;7.03;3.00;;;1.20;87.80;;;;;;5059719;28;20209;-55
2022/03/04 00:22:08;;;;;;;4.10;3.67;;;1.10;88.30;;;;;;5062973;28;20229;-55
2022/03/04 00:24:52;;;;;;;4.60;4.10;;;0.80;89.10;;;;;;5061771;28;20194;-55
2022/03/04 00:27:37;;;;;;;5.70;2.80;;;0.60;89.60;;;;;;5058760;28;20206;-53
2022/03/04 00:30:21;;;;;;;6.33;3.03;;;0.70;90.10;;;;;;5062723;28;20201;-53
2022/03/04 00:33:06;;;;;;;7.67;2.70;;;0.50;90.10;;;;;;5060222;28;20201;-57
2022/03/04 00:35:53;;;;;;;5.77;3.27;;;0.50;90.10;;;;;;5059867;28;20222;-54
2022/03/04 00:38:38;;;;;;;3.17;2.23;;;0.60;90.40;;;;;;5062691;28;20206;-54
2022/03/04 00:41:23;;;;;;;3.47;2.47;;;0.60;90.40;;;;;;5059013;28;20206;-56
2022/03/04 00:44:08;;;;;;;1.83;1.73;;;0.60;90.30;;;;;;5061591;28;20286;-55
2022/03/04 00:46:52;;;;;;;3.03;2.23;;;0.60;90.30;;;;;;5062512;28;20274;-55
2022/03/04 00:49:36;;;;;;;4.70;2.13;;;0.50;90.50;;;;;;5058943;28;20206;-55
2022/03/04 00:52:21;;;;;;;5.00;2.73;;;0.40;91.00;;;;;;5062449;28;20229;-53
2022/03/04 00:55:05;;;;;;;5.70;3.20;;;0.40;91.00;;;;;;5060838;28;20234;-55
2022/03/04 00:57:50;;;;;;;8.63;4.37;;;0.40;91.30;;;;;;5059320;28;20213;-56
2022/03/04 01:00:35;;;;;;;15.87;6.80;;;0.20;91.20;;;;;;5063489;28;20202;-55
2022/03/04 01:03:20;;;;;;;5.93;3.67;;;0.10;91.50;;;;;;5061280;28;20236;-55
2022/03/04 01:06:05;;;;;;;5.57;3.60;;;0.00;91.70;;;;;;5061500;28;20206;-53
2022/03/04 01:08:50;;;;;;;4.50;2.40;;;0.00;91.80;;;;;;5062631;28;20272;-54
2022/03/04 01:11:36;;;;;;;4.87;2.43;;;0.00;91.90;;;;;;5059011;28;20198;-50
2022/03/04 01:14:21;;;;;;;2.87;2.33;;;-0.10;92.00;;;;;;5062044;28;20237;-52
2022/03/04 01:17:06;;;;;;;9.27;2.60;;;-0.20;92.20;;;;;;5062814;28;20289;-50
2022/03/04 01:19:50;;;;;;;1.97;1.87;;;-0.40;92.50;;;;;;5058993;28;20324;-51
2022/03/04 01:22:35;;;;;;;3.03;2.10;;;-0.30;92.70;;;;;;5063209;28;20245;-56
2022/03/04 01:25:19;;;;;;;5.97;1.93;;;-0.30;92.80;;;;;;5061960;28;20198;-57
2022/03/04 01:28:04;;;;;;;8.53;3.57;;;-0.40;93.00;;;;;;5060141;28;20292;-55
2022/03/04 01:30:48;;;;;;;5.53;2.87;;;-0.50;93.30;;;;;;5062796;28;20194;-54
2022/03/04 01:33:33;;;;;;;5.37;2.47;;;-0.70;93.70;;;;;;5060587;28;20194;-56
2022/03/04 01:36:17;;;;;;;4.00;2.00;;;-0.60;94.00;;;;;;5060296;28;20246;-55
2022/03/04 01:39:02;;;;;;;3.93;2.87;;;-0.70;94.10;;;;;;5062706;28;20198;-54
2022/03/04 01:41:47;;;;;;;5.13;2.53;;;-0.60;94.10;;;;;;5059602;28;20237;-54
2022/03/04 01:44:32;;;;;;;2.57;2.13;;;-0.60;94.40;;;;;;5061909;28;20276;-53
2022/03/04 01:47:16;;;;;;;3.27;2.97;;;-0.60;94.50;;;;;;5062452;28;20201;-52
2022/03/04 01:50:02;;;;;;;4.60;2.83;;;-0.70;94.90;;;;;;5059219;28;20253;-54
2022/03/04 01:52:46;;;;;;;8.53;2.77;;;-0.70;94.90;;;;;;5062668;28;20194;-54
2022/03/04 01:55:31;;;;;;;5.20;2.73;;;-0.80;95.20;;;;;;5060952;28;20222;-57
2022/03/04 01:58:15;;;;;;;6.73;2.97;;;-0.70;95.40;;;;;;5058817;28;20198;-48
2022/03/04 02:01:00;;;;;;;6.80;2.93;;;-0.60;95.50;;;;;;5062712;28;20206;-50
2022/03/04 02:03:45;;;;;;;5.57;3.53;;;-0.70;95.60;;;;;;5060154;28;20248;-54
2022/03/04 02:06:29;;;;;;;6.90;1.97;;;-0.70;95.70;;;;;;5060002;28;20194;-55
2022/03/04 02:09:15;;;;;;;2.97;2.03;;;-0.80;95.90;;;;;;5061785;28;20193;-54
2022/03/04 02:12:00;;;;;;;3.00;1.93;;;-0.80;96.10;;;;;;5059043;28;20198;-54
2022/03/04 02:14:44;;;;;;;2.47;2.03;;;-0.90;96.30;;;;;;5060793;28;20218;-52
2022/03/04 02:17:28;;;;;;;4.47;2.80;;;-1.00;96.60;;;;;;5061522;28;20201;-54
2022/03/04 02:20:12;;;;;;;3.13;2.80;;;-0.90;96.80;;;;;;5058233;28;20205;-51
2022/03/04 02:22:57;;;;;;;2.00;1.80;;;-1.00;96.70;;;;;;5062037;28;20785;-52
2022/03/04 02:25:43;;;;;;;8.10;4.07;;;-1.00;96.90;;;;;;5060688;28;20198;-57
2022/03/04 02:28:28;;;;;;;2.27;1.93;;;-1.10;97.20;;;;;;5058876;28;20190;-50
2022/03/04 02:31:16;;;;;;;5.53;2.17;;;-1.10;97.40;;;;;;5061347;28;20194;-48
2022/03/04 02:34:01;;;;;;;3.63;2.17;;;-1.00;97.50;;;;;;5059961;28;20197;-50
2022/03/04 02:36:46;;;;;;;8.03;3.07;;;-1.10;97.50;;;;;;5058953;28;20245;-54
2022/03/04 02:39:31;;;;;;;3.20;2.40;;;-1.10;97.70;;;;;;5062040;28;20194;-53
2022/03/04 02:42:15;;;;;;;5.67;3.40;;;-1.10;97.80;;;;;;5057574;28;20211;-52
2022/03/04 02:44:59;;;;;;;4.87;3.37;;;-1.10;98.10;;;;;;5060658;28;20206;-50
2022/03/04 02:47:44;;;;;;;2.97;2.70;;;-1.10;98.10;;;;;;5061325;28;20197;-53
2022/03/04 02:50:28;;;;;;;4.43;2.23;;;-1.20;98.30;;;;;;5057998;28;20245;-56
2022/03/04 02:53:12;;;;;;;5.50;4.63;;;-1.20;98.60;;;;;;5061028;28;20198;-53
2022/03/04 02:55:56;;;;;;;7.23;3.03;;;-1.30;98.90;;;;;;5060001;28;20218;-53
2022/03/04 02:58:41;;;;;;;2.63;2.43;;;-1.30;99.10;;;;;;5057307;28;20202;-52
2022/03/04 03:01:25;;;;;;;4.23;2.70;;;-1.30;99.10;;;;;;5061335;28;20229;-51
2022/03/04 03:04:09;;;;;;;2.83;2.27;;;-1.30;99.30;;;;;;5058733;28;20224;-49
2022/03/04 03:06:53;;;;;;;3.57;3.27;;;-1.50;99.60;;;;;;5059427;28;20190;-50
2022/03/04 03:09:38;;;;;;;6.10;2.57;;;-1.50;99.80;;;;;;5061350;28;20277;-53
2022/03/04 03:12:22;;;;;;;4.63;1.73;;;-1.40;99.90;;;;;;5057636;28;20190;-58
2022/03/04 03:15:07;;;;;;;6.60;3.40;;;-1.50;99.90;;;;;;5060332;28;20225;-55
2022/03/04 03:17:52;;;;;;;9.10;3.93;;;-1.50;99.90;;;;;;5061083;28;20194;-52
2022/03/04 03:20:37;;;;;;;1.43;1.40;;;-1.60;99.90;;;;;;5058797;28;20248;-54
2022/03/04 03:23:21;;;;;;;4.43;3.20;;;-1.60;99.90;;;;;;5061545;28;20266;-54
2022/03/04 03:26:05;;;;;;;3.90;3.47;;;-1.60;99.90;;;;;;5060167;28;20188;-49
2022/03/04 03:28:50;;;;;;;7.80;4.30;;;-1.60;99.90;;;;;;5058322;28;20186;-53
2022/03/04 03:31:34;;;;;;;2.67;2.43;;;-1.60;99.90;;;;;;5060355;28;20252;-53
2022/03/04 03:34:18;;;;;;;3.77;2.77;;;-1.70;99.90;;;;;;5057904;28;20252;-55
2022/03/04 03:37:03;;;;;;;9.23;2.83;;;-1.70;99.90;;;;;;5058948;28;20276;-49
2022/03/04 03:39:48;;;;;;;3.50;2.47;;;-1.70;99.90;;;;;;5060419;28;20248;-56
2022/03/04 03:42:32;;;;;;;3.10;1.83;;;-1.70;99.90;;;;;;5056408;28;20205;-50
2022/03/04 03:45:16;;;;;;;1.67;1.17;;;-1.70;99.90;;;;;;5060082;28;20194;-54
2022/03/04 03:48:00;;;;;;;3.20;2.93;;;-1.70;99.90;;;;;;5060515;28;20198;-55
2022/03/04 03:50:45;;;;;;;4.20;3.80;;;-1.70;99.90;;;;;;5057757;28;20194;-51
2022/03/04 03:53:29;;;;;;;3.10;2.90;;;-1.80;99.90;;;;;;5060628;28;20189;-52
2022/03/04 03:56:14;;;;;;;15.60;4.30;;;-1.90;99.90;;;;;;5058648;28;20233;-55
2022/03/04 03:58:58;;;;;;;3.27;2.27;;;-1.80;99.90;;;;;;5057492;28;20277;-56
2022/03/04 04:01:43;;;;;;;1.97;1.87;;;-1.80;99.90;;;;;;5060268;28;20296;-52
2022/03/04 04:04:27;;;;;;;2.60;2.40;;;-1.80;99.90;;;;;;5057476;28;20190;-53
2022/03/04 04:07:12;;;;;;;6.37;3.00;;;-1.90;99.90;;;;;;5058953;28;20270;-51
2022/03/04 04:09:56;;;;;;;2.23;1.77;;;-1.90;99.90;;;;;;5060489;28;20268;-48
2022/03/04 04:12:41;;;;;;;4.47;2.47;;;-1.90;99.90;;;;;;5057120;28;20202;-50
2022/03/04 04:15:25;;;;;;;4.77;3.83;;;-1.90;99.90;;;;;;5060333;28;20272;-53
2022/03/04 04:18:09;;;;;;;2.53;1.43;;;-1.90;99.90;;;;;;5059826;28;20197;-51
2022/03/04 04:20:53;;;;;;;4.03;3.70;;;-1.90;99.90;;;;;;5057281;28;20282;-52
2022/03/04 04:23:38;;;;;;;6.23;2.83;;;-2.00;99.90;;;;;;5060224;28;20279;-52
2022/03/04 04:26:23;;;;;;;2.67;2.47;;;-2.10;99.90;;;;;;5058172;28;20285;-59
2022/03/04 04:29:08;;;;;;;13.57;3.30;;;-2.10;99.90;;;;;;5057729;28;20266;-57
2022/03/04 04:31:53;;;;;;;4.43;2.87;;;-2.10;99.90;;;;;;5060117;28;20354;-55
2022/03/04 04:34:37;;;;;;;3.60;2.70;;;-2.10;99.90;;;;;;5056605;28;20195;-51
2022/03/04 04:37:21;;;;;;;2.77;2.50;;;-2.10;99.90;;;;;;5058762;28;20193;-54
2022/03/04 04:40:07;;;;;;;11.37;2.73;;;-2.10;99.90;;;;;;5059953;28;20199;-56
2022/03/04 04:42:51;;;;;;;14.40;3.53;;;-2.10;99.90;;;;;;5056539;28;20325;-56
2022/03/04 04:45:36;;;;;;;4.80;2.60;;;-2.10;99.90;;;;;;5059891;28;20241;-55
2022/03/04 04:48:21;;;;;;;5.53;4.13;;;-2.20;99.90;;;;;;5058996;28;20195;-54
2022/03/04 04:51:05;;;;;;;3.47;3.23;;;-2.20;99.90;;;;;;5056487;28;20190;-54
2022/03/04 04:53:50;;;;;;;4.43;3.03;;;-2.20;99.90;;;;;;5059975;28;20191;-49
2022/03/04 04:56:36;;;;;;;2.67;2.50;;;-2.20;99.90;;;;;;5061314;28;20222;-56
2022/03/04 04:59:20;;;;;;;2.27;1.93;;;-2.20;99.90;;;;;;5060834;28;20245;-53
2022/03/04 05:02:04;;;;;;;2.57;2.37;;;-2.20;99.90;;;;;;5063860;28;20201;-52
2022/03/04 05:04:49;;;;;;;5.57;2.90;;;-2.20;99.90;;;;;;5076607;28;20189;-55
2022/03/04 05:07:33;;;;;;;5.93;4.37;;;-2.30;99.90;;;;;;5066754;28;20193;-54
2022/03/04 05:10:17;;;;;;;18.13;5.73;;;-2.30;99.90;;;;;;5068414;28;20185;-53
2022/03/04 05:13:01;;;;;;;10.47;6.13;;;-2.20;99.90;;;;;;5059954;28;20324;-51
2022/03/04 05:15:46;;;;;;;6.37;3.80;;;-1.70;99.90;;;;;;5066500;28;20221;-49
2022/03/04 05:18:31;;;;;;;2.97;2.77;;;-1.50;99.90;;;;;;5066199;28;20269;-55
2022/03/04 05:21:15;;;;;;;6.73;3.37;;;-1.30;99.90;;;;;;5064850;28;20193;-50
2022/03/04 05:24:00;;;;;;;6.03;4.00;;;-1.20;99.90;;;;;;5077730;28;20265;-51
2022/03/04 05:26:45;;;;;;;7.37;3.27;;;-1.20;99.90;;;;;;5074186;28;20186;-53
2022/03/04 05:29:29;;;;;;;5.17;2.97;;;-1.20;99.90;;;;;;5072999;28;20193;-51
2022/03/04 05:32:13;;;;;;;12.20;4.33;;;-1.00;99.90;;;;;;5078549;28;20198;-50
2022/03/04 05:34:58;;;;;;;8.07;3.63;;;-1.00;99.90;;;;;;5072365;28;20286;-52
2022/03/04 05:37:43;;;;;;;4.47;3.33;;;-1.20;99.90;;;;;;5073313;28;20225;-51
2022/03/04 05:40:28;;;;;;;8.23;4.90;;;-1.30;99.90;;;;;;5073503;28;20259;-53
2022/03/04 05:43:13;;;;;;;6.63;5.53;;;-1.50;99.90;;;;;;5063137;28;20336;-54
2022/03/04 05:45:57;;;;;;;3.00;2.80;;;-1.60;99.90;;;;;;5066155;28;20265;-52
2022/03/04 05:48:41;;;;;;;9.60;3.77;;;-1.60;99.90;;;;;;5066074;28;20285;-56
2022/03/04 05:51:25;;;;;;;3.67;2.93;;;-1.70;99.90;;;;;;5063962;28;20189;-51
2022/03/04 05:54:10;;;;;;;3.67;2.23;;;-1.70;99.90;;;;;;5065322;28;20194;-54
2022/03/04 05:56:54;;;;;;;7.37;2.80;;;-1.70;99.90;;;;;;5065875;28;20225;-55
2022/03/04 05:59:38;;;;;;;7.33;5.77;;;-1.70;99.90;;;;;;5065379;28;20270;-55
2022/03/04 06:02:25;;;;;;;7.43;2.97;;;-1.80;99.90;;;;;;5066171;28;20239;-54
2022/03/04 06:05:09;;;;;;;5.80;2.83;;;-1.90;99.90;;;;;;5063550;28;20189;-54
2022/03/04 06:07:53;;;;;;;11.07;3.03;;;-1.90;99.90;;;;;;5066098;28;20241;-52
2022/03/04 06:10:37;;;;;;;8.23;2.87;;;-1.90;99.90;;;;;;5048003;28;20205;-50
2022/03/04 06:13:21;;;;;;;7.00;4.20;;;-1.80;99.90;;;;;;5074156;28;20181;-52
2022/03/04 06:16:06;;;;;;;4.17;2.70;;;-1.70;99.90;;;;;;5066438;28;20225;-54
2022/03/04 06:18:51;;;;;;;7.47;4.23;;;-1.70;99.90;;;;;;5066063;28;20201;-49
2022/03/04 06:21:36;;;;;;;18.23;4.40;;;-1.70;99.90;;;;;;5064578;28;20186;-50
2022/03/04 06:24:20;;;;;;;8.57;3.67;;;-1.70;99.90;;;;;;5059085;28;20201;-55
2022/03/04 06:27:05;;;;;;;4.07;3.30;;;-1.70;99.90;;;;;;5044873;28;20214;-57
2022/03/04 06:29:49;;;;;;;9.10;3.23;;;-1.60;99.90;;;;;;5063195;28;20229;-55
2022/03/04 06:32:34;;;;;;;9.40;5.30;;;-1.50;99.90;;;;;;5067761;28;20189;-54
2022/03/04 06:35:18;;;;;;;8.87;3.50;;;-1.60;99.90;;;;;;5063992;28;20347;-51
2022/03/04 06:38:02;;;;;;;14.07;4.17;;;-1.50;99.90;;;;;;5052407;28;20221;-53
2022/03/04 06:40:48;;;;;;;3.07;2.77;;;-1.40;99.90;;;;;;5062436;28;20248;-57
2022/03/04 06:43:32;;;;;;;12.80;4.97;;;-1.50;99.90;;;;;;5062985;28;20221;-56
2022/03/04 06:46:17;;;;;;;5.13;3.93;;;-1.40;99.90;;;;;;5065389;28;20194;-57
2022/03/04 06:49:02;;;;;;;10.60;5.20;;;-1.40;99.90;;;;;;5061820;28;20188;-56
2022/03/04 06:51:46;;;;;;;9.03;3.23;;;-1.40;99.90;;;;;;5064119;28;20189;-53
2022/03/04 06:54:32;;;;;;;11.90;3.63;;;-1.30;99.90;;;;;;5061888;28;20193;-49
2022/03/04 06:57:17;;;;;;;5.87;3.97;;;-1.30;99.90;;;;;;5055344;28;20251;-53
2022/03/04 07:00:07;;;;;;;11.80;5.03;;;-1.30;99.90;;;;;;5055118;28;20218;-52
2022/03/04 07:02:52;;;;;;;13.63;4.10;;;-1.20;99.90;;;;;;5054785;28;20213;-51
2022/03/04 07:05:37;;;;;;;4.23;3.80;;;-1.10;99.90;;;;;;5058863;28;20201;-54
2022/03/04 07:08:22;;;;;;;12.43;5.00;;;-1.10;99.90;;;;;;5054022;28;20202;-53
2022/03/04 07:11:06;;;;;;;11.27;4.03;;;-1.00;99.90;;;;;;5059490;28;20261;-53
2022/03/04 07:13:50;;;;;;;4.93;2.83;;;-1.00;99.90;;;;;;5062063;28;20225;-54
2022/03/04 07:16:35;;;;;;;9.33;5.30;;;-0.90;99.90;;;;;;5055727;28;20230;-57
2022/03/04 07:19:20;;;;;;;3.77;3.10;;;-0.80;99.90;;;;;;5054872;28;20198;-56
2022/03/04 07:22:04;;;;;;;14.00;4.40;;;-0.70;99.90;;;;;;5055436;28;20233;-58
2022/03/04 07:24:48;;;;;;;5.53;4.13;;;-0.60;99.90;;;;;;5060756;28;20205;-50
2022/03/04 07:27:33;;;;;;;9.53;4.07;;;-0.50;99.90;;;;;;5053863;28;20259;-53
2022/03/04 07:30:18;;;;;;;12.43;5.00;;;-0.50;99.90;;;;;;5061963;28;20206;-56
2022/03/04 07:33:03;;;;;;;5.33;3.43;;;-0.50;99.90;;;;;;5064615;28;20224;-55
2022/03/04 07:35:48;;;;;;;9.13;3.57;;;-0.40;99.90;;;;;;5052631;28;20253;-51
2022/03/04 07:38:32;;;;;;;10.00;4.10;;;-0.30;99.90;;;;;;5049769;28;20213;-53
2022/03/04 07:41:17;;;;;;;7.10;4.97;;;-0.30;99.90;;;;;;5062545;28;20324;-56
2022/03/04 07:44:01;;;;;;;8.77;4.13;;;-0.20;99.90;;;;;;5054169;28;20320;-55
2022/03/04 07:46:45;;;;;;;6.97;3.67;;;-0.20;99.90;;;;;;5046251;28;20194;-54
2022/03/04 07:49:30;;;;;;;8.93;5.23;;;-0.10;99.90;;;;;;5048347;28;20259;-55
2022/03/04 07:52:14;;;;;;;5.97;4.70;;;-0.10;99.90;;;;;;5051597;28;20256;-54
2022/03/04 07:55:00;;;;;;;11.00;3.70;;;0.00;99.90;;;;;;5057575;28;20237;-52
2022/03/04 07:57:44;;;;;;;6.70;4.27;;;0.00;99.90;;;;;;5053288;28;20197;-55
2022/03/04 08:00:28;;;;;;;10.17;6.27;;;0.10;99.90;;;;;;5056720;28;20228;-51
2022/03/04 08:03:13;;;;;;;7.27;3.70;;;0.20;99.90;;;;;;5064723;28;20715;-52
2022/03/04 08:05:57;;;;;;;7.27;4.93;;;0.30;99.90;;;;;;5059410;28;20232;-54
2022/03/04 08:08:41;;;;;;;6.60;2.47;;;0.30;99.90;;;;;;5064691;28;20197;-51
2022/03/04 08:11:27;;;;;;;23.80;5.37;;;0.30;99.90;;;;;;5063388;28;20200;-54
2022/03/04 08:14:11;;;;;;;6.03;3.67;;;0.40;99.90;;;;;;5057004;28;20186;-52
2022/03/04 08:16:55;;;;;;;6.77;4.33;;;0.50;99.90;;;;;;5063847;28;20272;-54
2022/03/04 08:19:39;;;;;;;13.27;5.77;;;0.50;99.90;;;;;;5062459;28;20228;-53
2022/03/04 08:22:24;;;;;;;8.07;3.57;;;0.60;99.90;;;;;;5063490;28;20260;-52
2022/03/04 08:25:08;;;;;;;10.83;5.07;;;0.60;99.90;;;;;;5066267;28;20225;-50
2022/03/04 08:27:53;;;;;;;5.17;2.97;;;0.70;99.90;;;;;;5062799;28;20182;-52
2022/03/04 08:30:38;;;;;;;10.63;4.47;;;0.80;99.90;;;;;;5066796;28;20202;-52
2022/03/04 08:33:23;;;;;;;16.07;5.53;;;0.90;99.90;;;;;;5069683;28;20205;-52
2022/03/04 08:36:09;;;;;;;18.00;4.83;;;1.00;99.90;;;;;;5066165;28;20232;-53
2022/03/04 08:38:53;;;;;;;5.27;4.13;;;1.10;99.90;;;;;;5069851;28;20347;-50
2022/03/04 08:41:37;;;;;;;8.17;4.07;;;1.20;99.90;;;;;;5069437;28;20209;-54
2022/03/04 08:44:22;;;;;;;10.30;5.10;;;1.30;99.90;;;;;;5066781;28;20197;-53
2022/03/04 08:47:07;;;;;;;9.97;5.20;;;1.40;99.90;;;;;;5068915;28;20281;-54
2022/03/04 08:49:51;;;;;;;6.97;3.67;;;1.60;99.90;;;;;;5067562;28;20202;-54
2022/03/04 08:52:35;;;;;;;12.30;5.87;;;1.70;99.90;;;;;;5067145;28;20292;-54
2022/03/04 08:55:20;;;;;;;5.37;3.87;;;1.80;99.90;;;;;;5069360;28;20225;-51
2022/03/04 08:58:04;;;;;;;8.57;3.43;;;1.90;99.90;;;;;;5066554;28;20205;-53
2022/03/04 09:00:49;;;;;;;5.47;4.30;;;2.10;99.90;;;;;;5067850;28;20229;-52
2022/03/04 09:03:33;;;;;;;6.53;3.80;;;2.40;99.90;;;;;;5069561;28;20256;-52
2022/03/04 09:06:20;;;;;;;5.97;3.47;;;2.60;99.90;;;;;;5066098;28;20292;-52
2022/03/04 09:09:04;;;;;;;6.37;3.07;;;2.70;99.90;;;;;;5068899;28;20228;-48
2022/03/04 09:11:50;;;;;;;8.67;3.83;;;3.20;99.90;;;;;;5068388;28;20198;-56
2022/03/04 09:14:35;;;;;;;4.83;2.60;;;3.50;99.90;;;;;;5065560;28;20198;-48
2022/03/04 09:17:19;;;;;;;7.53;3.57;;;3.90;99.90;;;;;;5068769;28;20206;-50
2022/03/04 09:20:04;;;;;;;7.47;4.60;;;4.10;99.90;;;;;;5067721;28;20197;-54
2022/03/04 09:22:48;;;;;;;10.30;5.70;;;4.50;99.70;;;;;;5067196;28;20320;-50
2022/03/04 09:26:15;;;;;;;11.03;4.90;;;4.70;99.00;;;;;;5068527;28;20190;-51
2022/03/04 09:28:59;;;;;;;10.07;4.67;;;4.90;98.80;;;;;;5067385;28;20217;-53
2022/03/04 09:31:43;;;;;;;10.33;4.00;;;5.20;97.90;;;;;;5064983;28;20261;-56
2022/03/04 09:34:28;;;;;;;9.50;4.07;;;5.10;97.00;;;;;;5067894;28;20205;-52
2022/03/04 09:37:12;;;;;;;17.80;4.03;;;5.50;96.80;;;;;;5056672;28;20878;-52
2022/03/04 09:39:57;;;;;;;9.17;4.90;;;5.90;95.40;;;;;;5071985;28;20246;-56
2022/03/04 09:42:41;;;;;;;11.17;4.27;;;5.90;94.60;;;;;;5072953;28;20230;-53
2022/03/04 09:45:25;;;;;;;8.80;4.17;;;6.40;94.10;;;;;;5068721;28;20279;-52
2022/03/04 09:48:12;;;;;;;7.77;4.10;;;7.20;93.60;;;;;;5065519;28;20283;-52
2022/03/04 09:50:56;;;;;;;13.10;5.60;;;7.80;92.50;;;;;;5064307;28;20288;-49
2022/03/04 09:53:40;;;;;;;8.97;5.00;;;7.40;90.90;;;;;;5054065;28;20193;-51
2022/03/04 09:56:25;;;;;;;7.53;4.50;;;7.80;90.70;;;;;;5052278;28;20305;-54
2022/03/04 09:59:09;;;;;;;9.90;4.53;;;6.70;91.10;;;;;;5052768;28;20189;-56
2022/03/04 10:01:53;;;;;;;7.07;4.70;;;7.20;91.30;;;;;;5065009;28;20286;-54
2022/03/04 10:04:38;;;;;;;11.30;5.13;;;7.50;89.40;;;;;;5067315;28;20190;-54
2022/03/04 10:07:22;;;;;;;9.17;4.10;;;7.30;90.20;;;;;;5065717;28;20194;-54
2022/03/04 10:10:12;;;;;;;5.07;3.37;;;7.40;90.10;;;;;;5065328;28;20280;-50
2022/03/04 10:12:57;;;;;;;8.17;3.87;;;8.30;87.80;;;;;;5051586;28;20200;-52
2022/03/04 10:15:54;;;;;;;9.23;4.40;;;9.00;84.40;;;;;;5044824;28;20360;-55
2022/03/04 10:18:38;;;;;;;8.20;4.13;;;9.70;81.30;;;;;;5046368;28;20202;-53
2022/03/04 10:21:52;;;;;;;11.60;5.03;;;10.10;79.60;;;;;;5062999;28;20252;-53
2022/03/04 10:24:38;;;;;;;13.03;5.47;;;10.50;78.00;;;;;;5065600;28;20217;-52
2022/03/04 10:27:23;;;;;;;10.33;5.23;;;10.50;77.60;;;;;;5071886;28;20255;-54
2022/03/04 10:30:07;;;;;;;13.10;6.10;;;10.70;75.80;;;;;;5076355;28;20224;-57
2022/03/04 10:33:07;;;;;;;7.97;4.90;;;10.30;75.80;;;;;;5070386;28;20189;-55
2022/03/04 10:36:11;;;;;;;8.17;4.73;;;11.10;76.00;;;;;;5093057;28;20311;-56
2022/03/04 10:39:08;;;;;;;10.37;5.23;;;11.00;73.90;;;;;;5073692;28;20240;-54
2022/03/04 10:41:52;;;;;;;11.20;5.30;;;9.30;75.80;;;;;;5089896;28;20239;-52
2022/03/04 10:44:36;;;;;;;10.17;4.53;;;8.60;77.80;;;;;;5072471;28;20254;-52
2022/03/04 10:47:21;;;;;;;7.27;4.90;;;9.00;77.50;;;;;;5079098;28;20213;-51
2022/03/04 10:50:06;;;;;;;7.77;4.33;;;9.70;74.80;;;;;;5059656;28;20197;-53
2022/03/04 10:52:58;;;;;;;7.60;4.67;;;10.60;74.10;;;;;;5065771;28;20204;-53
2022/03/04 10:55:47;;;;;;;11.70;6.33;;;11.30;71.70;;;;;;5066196;28;20280;-50
2022/03/04 10:58:34;;;;;;;6.77;3.70;;;10.90;72.20;;;;;;5063055;28;20244;-52
2022/03/04 11:01:19;;;;;;;6.57;3.93;;;11.20;70.60;;;;;;5060970;28;20271;-53
2022/03/04 11:04:03;;;;;;;7.17;3.93;;;11.30;69.30;;;;;;5065490;28;20305;-48
2022/03/04 11:06:50;;;;;;;9.87;4.73;;;10.60;68.20;;;;;;5063839;28;20257;-53
2022/03/04 11:09:34;;;;;;;7.70;3.60;;;10.30;70.60;;;;;;5066648;28;20287;-51
2022/03/04 11:12:20;;;;;;;5.20;2.97;;;8.60;72.30;;;;;;5064714;28;20279;-51
2022/03/04 11:15:05;;;;;;;3.87;2.60;;;8.20;74.40;;;;;;5053904;28;20755;-50
2022/03/04 11:17:51;;;;;;;6.27;2.70;;;8.20;74.60;;;;;;5067034;28;20189;-48
2022/03/04 11:20:37;;;;;;;5.87;2.63;;;8.00;75.10;;;;;;5048729;28;20209;-49
2022/03/04 11:23:24;;;;;;;4.07;1.90;;;7.70;74.90;;;;;;5056868;28;20230;-53
2022/03/04 11:26:24;;;;;;;3.90;1.90;;;7.70;74.00;;;;;;5064048;28;20216;-53
2022/03/04 11:29:31;;;;;;;4.97;2.10;;;7.50;73.90;;;;;;5044193;28;20297;-53
2022/03/04 11:32:15;;;;;;;4.33;2.53;;;7.30;74.90;;;;;;5058906;28;20204;-49
2022/03/04 11:35:00;;;;;;;4.47;2.03;;;7.20;75.20;;;;;;5062080;28;20197;-51
2022/03/04 11:37:50;;;;;;;3.20;2.30;;;6.90;75.70;;;;;;5052544;28;20256;-51
2022/03/04 11:40:38;;;;;;;2.37;1.73;;;7.00;76.10;;;;;;5086929;28;20193;-51
2022/03/04 11:44:03;;;;;;;3.53;1.50;;;7.20;76.50;;;;;;5088312;28;20205;-53
2022/03/04 11:46:50;;;;;;;3.27;2.33;;;7.30;75.50;;;;;;5053412;28;20206;-54
2022/03/04 11:49:46;;;;;;;2.23;1.60;;;7.40;75.20;;;;;;5059312;28;20193;-54
2022/03/04 11:52:48;;;;;;;5.20;3.13;;;7.30;75.80;;;;;;5061935;28;20198;-54
2022/03/04 11:55:33;;;;;;;4.33;1.83;;;7.30;77.90;;;;;;5084044;28;20228;-54
2022/03/04 11:58:18;;;;;;;6.40;3.07;;;7.80;81.30;;;;;;5054299;28;20243;-54
2022/03/04 12:01:17;;;;;;;7.73;3.40;;;7.90;81.30;;;;;;5061453;28;20217;-51
2022/03/04 12:04:22;;;;;;;5.60;3.10;;;8.00;81.30;;;;;;5058991;28;20266;-55
2022/03/04 12:07:09;;;;;;;5.03;2.77;;;8.00;80.50;;;;;;5059401;28;20200;-53
2022/03/04 12:09:55;;;;;;;5.27;2.60;;;8.20;80.20;;;;;;5065812;28;20218;-55
2022/03/04 12:12:42;;;;;;;4.63;2.63;;;8.20;80.10;;;;;;5062287;28;20220;-55
2022/03/04 12:15:26;;;;;;;5.07;2.87;;;7.80;80.00;;;;;;5064094;28;20220;-51
2022/03/04 12:18:26;;;;;;;4.77;2.77;;;7.80;80.30;;;;;;5060517;28;20248;-50
2022/03/04 12:21:15;;;;;;;3.80;2.80;;;7.80;80.90;;;;;;5061801;28;20194;-53
2022/03/04 12:24:03;;;;;;;5.97;2.77;;;7.90;80.00;;;;;;5063859;28;20196;-53
2022/03/04 12:26:51;;;;;;;4.93;2.40;;;7.50;80.20;;;;;;5059415;28;20194;-55
2022/03/04 12:29:46;;;;;;;3.90;2.37;;;7.50;81.10;;;;;;5056601;28;20197;-54
2022/03/04 12:32:31;;;;;;;5.80;2.57;;;7.30;80.20;;;;;;5063468;28;20202;-57
2022/03/04 12:35:17;;;;;;;10.83;5.00;;;6.90;81.30;;;;;;5067736;28;20286;-55
2022/03/04 12:38:03;;;;;;;5.23;2.27;;;7.00;81.20;;;;;;5046862;28;20252;-52
2022/03/04 12:40:47;;;;;;;5.10;2.00;;;7.20;80.80;;;;;;5059941;28;20194;-55
2022/03/04 12:43:38;;;;;;;2.50;1.90;;;6.90;81.60;;;;;;5055899;28;20283;-55
2022/03/04 12:46:25;;;;;;;5.60;2.10;;;7.00;81.50;;;;;;5050245;28;20206;-55
2022/03/04 12:49:10;;;;;;;3.77;1.90;;;6.90;81.30;;;;;;5064568;28;20194;-51
2022/03/04 12:51:55;;;;;;;5.17;2.90;;;6.90;82.00;;;;;;5067629;28;20244;-56
2022/03/04 12:54:39;;;;;;;2.73;2.00;;;6.80;81.70;;;;;;5065804;28;20426;-53
2022/03/04 12:57:27;;;;;;;3.97;1.80;;;6.80;80.40;;;;;;5060962;28;20190;-51
2022/03/04 13:00:11;;;;;;;3.30;1.87;;;6.90;81.10;;;;;;5055085;28;20319;-52
2022/03/04 13:02:56;;;;;;;2.73;1.83;;;7.00;80.30;;;;;;5063933;28;20190;-58
2022/03/04 13:05:46;;;;;;;4.77;2.47;;;7.20;80.30;;;;;;5066659;28;20185;-54
2022/03/04 13:08:34;;;;;;;3.67;1.93;;;7.40;79.90;;;;;;5061532;28;20228;-57
2022/03/04 13:11:30;;;;;;;3.77;2.10;;;7.70;79.60;;;;;;5049630;28;20194;-53
2022/03/04 13:14:17;;;;;;;3.73;1.80;;;8.00;78.20;;;;;;5066931;28;20194;-53
2022/03/04 13:17:01;;;;;;;1.97;1.87;;;8.20;77.70;;;;;;5054188;28;20280;-57
2022/03/04 13:19:46;;;;;;;3.27;1.80;;;8.20;76.90;;;;;;5064800;28;20189;-55
2022/03/04 13:22:30;;;;;;;6.70;2.17;;;8.00;77.50;;;;;;5064804;28;20292;-54
2022/03/04 13:25:14;;;;;;;1.97;1.73;;;8.10;77.10;;;;;;5065347;28;20256;-55
2022/03/04 13:28:00;;;;;;;2.80;1.80;;;8.10;76.70;;;;;;5052132;28;20193;-55
2022/03/04 13:30:48;;;;;;;2.17;1.53;;;8.00;75.80;;;;;;5056650;28;20202;-57
2022/03/04 13:33:38;;;;;;;3.03;1.57;;;8.10;77.10;;;;;;5052684;28;20225;-58
2022/03/04 13:36:44;;;;;;;3.97;1.70;;;8.10;76.20;;;;;;5060575;28;20306;-57
2022/03/04 13:39:32;;;;;;;4.00;2.07;;;8.20;75.90;;;;;;5056869;28;20334;-58
2022/03/04 13:42:21;;;;;;;4.40;2.00;;;8.20;75.20;;;;;;5065221;28;20182;-58
2022/03/04 13:45:11;;;;;;;3.23;1.57;;;8.00;73.80;;;;;;5079154;28;20297;-55
2022/03/04 13:48:03;;;;;;;1.70;1.10;;;8.00;74.80;;;;;;5058664;28;20201;-53
2022/03/04 13:50:47;;;;;;;5.13;2.10;;;8.00;74.80;;;;;;5059522;28;20198;-59
2022/03/04 13:53:32;;;;;;;4.50;2.00;;;8.10;74.80;;;;;;5065440;28;20205;-56
2022/03/04 13:56:16;;;;;;;1.83;1.60;;;8.00;75.10;;;;;;5057161;28;20327;-56
2022/03/04 13:59:02;;;;;;;3.37;1.63;;;7.80;75.70;;;;;;5060943;28;20189;-54
2022/03/04 14:01:46;;;;;;;4.27;1.70;;;7.90;76.00;;;;;;5063875;28;20229;-56
2022/03/04 14:04:32;;;;;;;5.13;1.90;;;7.80;75.20;;;;;;5063391;28;20181;-57
2022/03/04 14:07:18;;;;;;;3.50;1.93;;;7.80;75.70;;;;;;5065784;28;20189;-55
2022/03/04 14:10:09;;;;;;;1.90;1.80;;;7.40;78.10;;;;;;5061334;28;20225;-51
2022/03/04 14:12:54;;;;;;;7.10;1.70;;;7.20;79.60;;;;;;5048808;28;20237;-51
2022/03/04 14:15:41;;;;;;;2.87;1.53;;;7.00;81.20;;;;;;5067337;28;20259;-53
2022/03/04 14:18:26;;;;;;;1.67;1.57;;;6.80;82.20;;;;;;5051228;28;20301;-55
2022/03/04 14:21:11;;;;;;;3.83;1.77;;;6.60;83.40;;;;;;5051376;28;20278;-52
2022/03/04 14:23:55;;;;;;;4.00;1.80;;;6.40;88.40;;;;;;5052170;28;20222;-53
2022/03/04 14:26:40;;;;;;;4.33;2.40;;;6.50;90.10;;;;;;5055020;28;20283;-57